createdAt,value
2023-04-14T00:00:41.896Z,57.40
2023-04-14T00:03:10.257Z,57.40
2023-04-14T00:05:37.778Z,57.40
2023-04-14T00:08:04.974Z,57.40
2023-04-14T00:10:32.639Z,57.50
2023-04-14T00:13:01.514Z,57.50
2023-04-14T00:15:28.484Z,57.30
2023-04-14T00:17:55.510Z,57.50
2023-04-14T00:20:22.548Z,57.30
2023-04-14T00:22:49.817Z,57.40
2023-04-14T00:25:17.804Z,57.40
2023-04-14T00:27:45.335Z,57.50
2023-04-14T00:30:12.886Z,57.40
2023-04-14T00:32:39.893Z,57.40
2023-04-14T00:35:07.856Z,57.40
2023-04-14T00:37:34.768Z,57.30
2023-04-14T00:40:02.646Z,57.30
2023-04-14T00:42:29.852Z,57.30
2023-04-14T00:44:57.405Z,57.30
2023-04-14T00:47:25.026Z,57.40
2023-04-14T00:49:52.112Z,57.30
2023-04-14T00:52:21.086Z,57.30
2023-04-14T00:54:48.669Z,57.40
2023-04-14T00:57:16.066Z,57.40
2023-04-14T00:59:43.278Z,57.50
2023-04-14T01:02:11.142Z,57.40
2023-04-14T01:04:52.652Z,57.40
2023-04-14T01:07:24.437Z,57.60
2023-04-14T01:09:54.518Z,57.80
2023-04-14T01:12:48.708Z,57.80
2023-04-14T01:15:34.132Z,57.60
2023-04-14T01:18:21.909Z,57.60
2023-04-14T01:20:56.598Z,57.60
2023-04-14T01:23:28.040Z,57.50
2023-04-14T01:26:27.625Z,57.50
2023-04-14T01:29:09.741Z,57.80
2023-04-14T01:32:03.566Z,57.70
2023-04-14T01:34:46.201Z,57.70
2023-04-14T01:37:17.201Z,57.80
2023-04-14T01:39:53.859Z,57.80
2023-04-14T01:42:26.760Z,57.80
2023-04-14T01:44:58.876Z,57.80
2023-04-14T01:47:28.983Z,57.80
2023-04-14T01:50:03.598Z,57.80
2023-04-14T01:52:32.606Z,57.90
2023-04-14T01:55:05.984Z,57.90
2023-04-14T01:57:36.772Z,57.90
2023-04-14T02:00:07.801Z,57.90
2023-04-14T02:02:44.638Z,57.90
2023-04-14T02:05:13.960Z,58.00
2023-04-14T02:07:44.661Z,58.00
2023-04-14T02:10:13.784Z,58.00
2023-04-14T02:12:48.395Z,58.10
2023-04-14T02:15:18.805Z,58.10
2023-04-14T02:17:49.612Z,58.20
2023-04-14T02:20:18.046Z,58.20
2023-04-14T02:22:45.433Z,58.20
2023-04-14T02:25:12.780Z,58.20
2023-04-14T02:27:55.123Z,58.30
2023-04-14T02:30:27.779Z,58.50
2023-04-14T02:33:01.959Z,58.60
2023-04-14T02:35:38.493Z,58.50
2023-04-14T02:38:16.306Z,58.50
2023-04-14T02:40:45.120Z,58.60
2023-04-14T02:43:36.845Z,58.50
2023-04-14T02:46:05.487Z,58.80
2023-04-14T02:48:35.970Z,59.00
2023-04-14T02:51:05.279Z,58.90
2023-04-14T02:53:33.359Z,58.80
2023-04-14T02:56:08.861Z,58.80
2023-04-14T02:58:40.466Z,59.10
2023-04-14T03:01:09.029Z,59.10
2023-04-14T03:03:37.948Z,59.00
2023-04-14T03:06:09.539Z,59.00
2023-04-14T03:08:39.771Z,59.20
2023-04-14T03:11:08.740Z,59.20
2023-04-14T03:13:38.046Z,59.40
2023-04-14T03:16:07.003Z,59.40
2023-04-14T03:18:37.077Z,59.60
2023-04-14T03:21:05.873Z,59.50
2023-04-14T03:23:34.036Z,59.30
2023-04-14T03:26:05.936Z,59.30
2023-04-14T03:28:37.565Z,59.40
2023-04-14T03:31:09.516Z,59.50
2023-04-14T03:33:55.764Z,59.60
2023-04-14T03:36:26.224Z,59.70
2023-04-14T03:39:01.556Z,59.50
2023-04-14T03:41:36.246Z,59.70
2023-04-14T03:44:05.380Z,59.70
2023-04-14T03:46:32.745Z,59.80
2023-04-14T03:49:02.443Z,59.60
2023-04-14T03:51:32.399Z,59.80
2023-04-14T03:54:02.494Z,59.90
2023-04-14T03:56:31.455Z,59.90
2023-04-14T03:59:00.728Z,60.10
2023-04-14T04:01:31.970Z,60.20
2023-04-14T04:04:02.314Z,60.30
2023-04-14T04:06:29.903Z,60.50
2023-04-14T04:09:00.184Z,60.50
2023-04-14T04:11:27.850Z,60.70
2023-04-14T04:13:57.153Z,60.60
2023-04-14T04:16:27.843Z,60.60
2023-04-14T04:18:55.629Z,60.90
2023-04-14T04:21:32.534Z,60.80
2023-04-14T04:24:02.017Z,60.70
2023-04-14T04:26:30.046Z,60.80
2023-04-14T04:28:58.406Z,60.80
2023-04-14T04:31:28.413Z,60.80
2023-04-14T04:34:00.191Z,61.10
2023-04-14T04:36:28.951Z,61.10
2023-04-14T04:38:57.138Z,61.20
2023-04-14T04:41:27.468Z,61.10
2023-04-14T04:43:56.835Z,61.20
2023-04-14T04:46:44.753Z,61.40
2023-04-14T04:49:12.188Z,61.80
2023-04-14T04:51:39.326Z,62.10
2023-04-14T04:54:08.237Z,62.20
2023-04-14T04:56:36.742Z,62.00
2023-04-14T04:59:04.140Z,62.10
2023-04-14T05:01:31.334Z,62.20
2023-04-14T05:03:58.566Z,62.40
2023-04-14T05:06:26.481Z,62.60
2023-04-14T05:08:55.397Z,62.80
2023-04-14T05:11:24.760Z,62.90
2023-04-14T05:13:51.750Z,63.10
2023-04-14T05:16:19.867Z,63.30
2023-04-14T05:18:47.153Z,63.10
2023-04-14T05:21:16.817Z,63.40
2023-04-14T05:23:44.960Z,63.40
2023-04-14T05:28:43.435Z,63.60
2023-04-14T05:31:10.736Z,63.50
2023-04-14T05:33:37.744Z,63.50
2023-04-14T05:36:04.889Z,63.60
2023-04-14T05:38:31.809Z,63.80
2023-04-14T05:40:58.874Z,64.00
2023-04-14T05:43:27.163Z,64.50
2023-04-14T05:45:54.719Z,63.90
2023-04-14T05:48:25.733Z,64.00
2023-04-14T05:50:53.927Z,64.10
2023-04-14T05:53:20.970Z,63.90
2023-04-14T05:55:51.078Z,64.20
2023-04-14T05:58:18.329Z,64.20
2023-04-14T06:00:45.413Z,64.00
2023-04-14T06:03:12.647Z,63.80
2023-04-14T06:05:41.330Z,64.00
2023-04-14T06:08:08.691Z,64.20
2023-04-14T06:10:37.394Z,64.30
2023-04-14T06:13:05.776Z,64.60
2023-04-14T06:15:33.822Z,64.70
2023-04-14T06:18:01.265Z,65.80
2023-04-14T06:20:29.580Z,64.70
2023-04-14T06:22:57.737Z,64.70
2023-04-14T06:25:24.744Z,64.80
2023-04-14T06:27:51.884Z,64.80
2023-04-14T06:30:20.094Z,66.00
2023-04-14T06:32:48.755Z,65.00
2023-04-14T06:35:29.660Z,65.10
2023-04-14T06:37:59.801Z,64.90
2023-04-14T06:40:27.081Z,65.20
2023-04-14T06:42:54.856Z,65.20
2023-04-14T06:45:23.103Z,65.30
2023-04-14T06:47:50.520Z,65.40
2023-04-14T06:50:17.729Z,65.50
2023-04-14T06:52:44.795Z,65.60
2023-04-14T06:55:11.758Z,65.70
2023-04-14T06:57:38.903Z,65.80
2023-04-14T07:00:07.413Z,66.10
2023-04-14T07:02:34.647Z,65.80
2023-04-14T07:05:02.007Z,65.70
2023-04-14T07:07:29.131Z,65.90
2023-04-14T07:09:56.082Z,66.10
2023-04-14T07:12:23.117Z,66.20
2023-04-14T07:14:52.751Z,66.30
2023-04-14T07:17:20.081Z,66.40
2023-04-14T07:19:47.552Z,66.60
2023-04-14T07:22:15.302Z,66.60
2023-04-14T07:24:42.505Z,66.60
2023-04-14T07:27:15.649Z,66.50
2023-04-14T07:29:43.179Z,66.60
2023-04-14T07:32:12.060Z,66.60
2023-04-14T07:34:44.036Z,66.70
2023-04-14T07:37:11.462Z,66.30
2023-04-14T07:39:38.894Z,66.30
2023-04-14T07:42:06.901Z,66.60
2023-04-14T07:44:34.468Z,66.70
2023-04-14T07:47:03.770Z,66.60
2023-04-14T07:49:31.658Z,66.60
2023-04-14T07:52:00.798Z,66.60
2023-04-14T07:54:30.347Z,66.80
2023-04-14T07:56:58.090Z,66.60
2023-04-14T07:59:25.391Z,66.80
2023-04-14T08:01:54.598Z,66.80
2023-04-14T08:04:23.570Z,66.50
2023-04-14T08:06:50.611Z,66.50
2023-04-14T08:09:17.708Z,66.30
2023-04-14T08:11:44.809Z,66.40
2023-04-14T08:14:12.101Z,66.60
2023-04-14T08:16:39.139Z,66.80
2023-04-14T08:19:06.336Z,67.00
2023-04-14T08:21:33.342Z,67.00
2023-04-14T08:24:00.477Z,66.80
2023-04-14T08:26:30.018Z,66.80
2023-04-14T08:28:57.575Z,66.70
2023-04-14T08:31:26.699Z,66.90
2023-04-14T08:33:53.785Z,66.70
2023-04-14T08:36:21.151Z,66.70
2023-04-14T08:38:48.181Z,66.90
2023-04-14T08:41:19.515Z,67.00
2023-04-14T08:43:46.687Z,67.00
2023-04-14T08:46:15.010Z,66.80
2023-04-14T08:48:45.959Z,66.80
2023-04-14T08:51:26.319Z,66.90
2023-04-14T08:53:57.889Z,66.90
2023-04-14T08:56:30.160Z,67.10
2023-04-14T08:58:57.922Z,67.00
2023-04-14T09:01:25.199Z,67.10
2023-04-14T09:03:53.941Z,67.20
2023-04-14T09:06:23.800Z,67.00
2023-04-14T09:08:52.487Z,67.40
2023-04-14T09:11:19.745Z,67.40
2023-04-14T09:13:49.639Z,67.40
2023-04-14T09:16:17.884Z,67.50
2023-04-14T09:18:47.262Z,67.70
2023-04-14T09:21:49.253Z,67.70
2023-04-14T09:24:04.188Z,67.80
2023-04-14T09:26:31.394Z,67.70
2023-04-14T09:28:58.924Z,67.50
2023-04-14T09:31:27.227Z,67.80
2023-04-14T09:33:54.473Z,68.10
2023-04-14T09:36:24.055Z,68.00
2023-04-14T09:38:52.082Z,68.10
2023-04-14T09:41:31.613Z,68.20
2023-04-14T09:44:07.493Z,68.10
2023-04-14T09:46:34.556Z,68.40
2023-04-14T09:49:03.393Z,69.60
2023-04-14T09:51:33.018Z,68.70
2023-04-14T09:54:05.285Z,68.90
2023-04-14T09:56:33.347Z,68.60
2023-04-14T09:59:04.329Z,68.60
2023-04-14T10:01:34.438Z,68.40
2023-04-14T10:04:04.341Z,68.70
2023-04-14T10:06:32.287Z,68.70
2023-04-14T10:09:00.165Z,68.70
2023-04-14T10:11:35.352Z,68.90
2023-04-14T10:14:05.773Z,68.80
2023-04-14T10:16:34.272Z,68.80
2023-04-14T10:19:02.669Z,69.30
2023-04-14T10:21:32.019Z,69.40
2023-04-14T10:24:00.903Z,69.20
2023-04-14T10:26:30.342Z,69.50
2023-04-14T10:28:58.069Z,69.40
2023-04-14T10:31:36.795Z,69.30
2023-04-14T10:34:08.927Z,69.20
2023-04-14T10:36:36.979Z,69.50
2023-04-14T10:39:05.640Z,69.50
2023-04-14T10:41:46.230Z,69.90
2023-04-14T10:44:28.608Z,69.60
2023-04-14T10:46:57.123Z,69.70
2023-04-14T10:49:49.331Z,69.80
2023-04-14T10:52:16.853Z,69.50
2023-04-14T10:55:08.275Z,69.60
2023-04-14T10:57:43.632Z,69.10
2023-04-14T11:00:25.208Z,69.30
2023-04-14T11:03:03.463Z,69.40
2023-04-14T11:05:34.188Z,69.50
2023-04-14T11:08:13.759Z,69.40
2023-04-14T11:10:42.826Z,69.60
2023-04-14T11:13:13.055Z,69.40
2023-04-14T11:15:46.060Z,69.70
2023-04-14T11:18:39.314Z,70.00
2023-04-14T11:21:13.611Z,70.20
2023-04-14T11:23:41.621Z,70.10
2023-04-14T11:26:10.555Z,70.00
2023-04-14T11:28:41.749Z,69.90
2023-04-14T11:31:10.241Z,70.30
2023-04-14T11:33:40.310Z,70.40
2023-04-14T11:36:11.138Z,70.80
2023-04-14T11:38:41.789Z,70.40
2023-04-14T11:41:10.091Z,70.70
2023-04-14T11:43:46.519Z,71.00
2023-04-14T11:46:13.771Z,71.30
2023-04-14T11:48:41.126Z,71.10
2023-04-14T11:51:08.857Z,71.00
2023-04-14T11:53:36.830Z,71.00
2023-04-14T11:56:06.343Z,71.20
2023-04-14T11:58:33.933Z,71.20
2023-04-14T12:01:02.252Z,71.30
2023-04-14T12:03:33.085Z,71.30
2023-04-14T12:06:01.899Z,71.40
2023-04-14T12:08:33.439Z,71.30
2023-04-14T12:11:17.535Z,71.70
2023-04-14T12:13:46.693Z,71.70
2023-04-14T12:16:15.345Z,71.50
2023-04-14T12:18:43.889Z,71.60
2023-04-14T12:21:16.387Z,71.80
2023-04-14T12:23:48.488Z,71.90
2023-04-14T12:26:17.433Z,71.80
2023-04-14T12:28:45.945Z,71.80
2023-04-14T12:31:13.232Z,72.00
2023-04-14T12:33:40.549Z,71.90
2023-04-14T12:36:12.565Z,71.70
2023-04-14T12:38:39.750Z,71.70
2023-04-14T12:41:06.986Z,72.00
2023-04-14T12:43:41.259Z,71.70
2023-04-14T12:46:08.414Z,71.70
2023-04-14T12:48:44.886Z,71.30
2023-04-14T12:51:14.451Z,71.30
2023-04-14T12:53:42.749Z,71.20
2023-04-14T12:56:24.230Z,71.00
2023-04-14T12:58:52.663Z,71.30
2023-04-14T13:01:20.940Z,71.40
2023-04-14T13:03:52.826Z,71.30
2023-04-14T13:06:23.054Z,71.50
2023-04-14T13:08:52.114Z,71.50
2023-04-14T13:11:21.779Z,71.50
2023-04-14T13:13:49.775Z,71.40
2023-04-14T13:16:31.512Z,71.50
2023-04-14T13:18:59.925Z,71.60
2023-04-14T13:21:27.339Z,71.50
2023-04-14T13:23:54.869Z,71.70
2023-04-14T13:26:22.652Z,71.40
2023-04-14T13:28:50.874Z,71.20
2023-04-14T13:31:19.381Z,71.30
2023-04-14T13:33:46.911Z,71.10
2023-04-14T13:36:14.222Z,71.00
2023-04-14T13:38:42.021Z,70.90
2023-04-14T13:41:09.133Z,70.90
2023-04-14T13:43:36.420Z,71.20
2023-04-14T13:46:03.473Z,71.20
2023-04-14T13:48:32.055Z,71.30
2023-04-14T13:50:59.643Z,71.00
2023-04-14T13:53:26.692Z,71.20
2023-04-14T13:55:54.184Z,71.30
2023-04-14T13:58:21.429Z,71.40
2023-04-14T14:00:50.732Z,71.20
2023-04-14T14:03:19.657Z,71.20
2023-04-14T14:05:47.268Z,71.30
2023-04-14T14:08:17.506Z,71.70
2023-04-14T14:10:45.486Z,71.30
2023-04-14T14:13:12.522Z,71.70
2023-04-14T14:15:39.493Z,71.50
2023-04-14T14:18:08.381Z,71.50
2023-04-14T14:20:36.380Z,71.60
2023-04-14T14:23:05.803Z,71.40
2023-04-14T14:25:34.331Z,71.30
2023-04-14T14:28:03.002Z,71.30
2023-04-14T14:30:30.059Z,71.50
2023-04-14T14:32:58.164Z,71.50
2023-04-14T14:35:25.462Z,72.30
2023-04-14T14:37:52.495Z,71.50
2023-04-14T14:40:19.639Z,71.70
2023-04-14T14:42:46.542Z,71.40
2023-04-14T14:45:13.637Z,71.20
2023-04-14T14:47:41.509Z,71.20
2023-04-14T14:50:09.101Z,71.30
2023-04-14T14:52:36.690Z,71.20
2023-04-14T14:55:05.273Z,71.20
2023-04-14T14:57:32.428Z,71.20
2023-04-14T14:59:59.757Z,71.30
2023-04-14T15:02:27.390Z,71.60
2023-04-14T15:04:54.723Z,71.60
2023-04-14T15:07:21.773Z,71.50
2023-04-14T15:09:50.065Z,71.30
2023-04-14T15:12:17.565Z,71.50
2023-04-14T15:14:44.857Z,71.50
2023-04-14T15:17:11.781Z,71.30
2023-04-14T15:19:38.907Z,71.30
2023-04-14T15:22:06.118Z,71.10
2023-04-14T15:24:34.377Z,71.10
2023-04-14T15:27:02.642Z,71.30
2023-04-14T15:29:30.922Z,71.10
2023-04-14T15:31:58.092Z,71.20
2023-04-14T15:34:25.360Z,71.50
2023-04-14T15:36:52.370Z,71.40
2023-04-14T15:39:19.377Z,71.50
2023-04-14T15:41:47.672Z,71.50
2023-04-14T15:44:14.767Z,71.40
2023-04-14T15:46:41.736Z,71.40
2023-04-14T15:49:10.179Z,71.50
2023-04-14T15:51:37.575Z,71.70
2023-04-14T15:54:05.308Z,71.80
2023-04-14T15:56:32.283Z,71.60
2023-04-14T15:58:59.288Z,71.60
2023-04-14T16:01:27.872Z,71.50
2023-04-14T16:03:56.005Z,71.60
2023-04-14T16:06:23.594Z,71.40
2023-04-14T16:08:52.852Z,71.40
2023-04-14T16:11:20.718Z,71.50
2023-04-14T16:13:47.926Z,71.50
2023-04-14T16:16:16.208Z,71.50
2023-04-14T16:18:43.327Z,71.70
2023-04-14T16:21:10.546Z,71.70
2023-04-14T16:23:37.605Z,71.80
2023-04-14T16:26:04.822Z,71.90
2023-04-14T16:28:32.180Z,71.80
2023-04-14T16:31:05.609Z,71.80
2023-04-14T16:33:32.863Z,71.70
2023-04-14T16:36:04.438Z,71.90
2023-04-14T16:38:31.854Z,72.00
2023-04-14T16:41:01.034Z,72.00
2023-04-14T16:43:28.621Z,71.80
2023-04-14T16:46:04.330Z,71.90
2023-04-14T16:48:32.681Z,71.90
2023-04-14T16:51:09.034Z,71.90
2023-04-14T16:53:38.826Z,71.90
2023-04-14T16:56:10.067Z,72.10
2023-04-14T16:58:38.064Z,71.90
2023-04-14T17:01:06.985Z,71.90
2023-04-14T17:03:34.434Z,71.90
2023-04-14T17:06:03.164Z,72.00
2023-04-14T17:08:30.167Z,72.10
2023-04-14T17:10:59.148Z,72.10
2023-04-14T17:13:27.956Z,72.20
2023-04-14T17:16:05.691Z,72.00
2023-04-14T17:18:35.778Z,71.90
2023-04-14T17:21:03.012Z,72.00
2023-04-14T17:23:30.020Z,72.80
2023-04-14T17:25:58.773Z,72.00
2023-04-14T17:28:27.327Z,72.20
2023-04-14T17:30:55.728Z,72.00
2023-04-14T17:33:27.373Z,71.90
2023-04-14T17:35:55.614Z,72.00
2023-04-14T17:38:23.618Z,72.20
2023-04-14T17:40:53.424Z,72.10
2023-04-14T17:43:21.081Z,72.20
2023-04-14T17:45:50.554Z,72.20
2023-04-14T17:48:20.892Z,71.90
2023-04-14T17:50:48.247Z,72.10
2023-04-14T17:53:16.472Z,72.00
2023-04-14T17:55:43.889Z,72.00
2023-04-14T17:58:12.218Z,72.10
2023-04-14T18:00:40.122Z,72.30
2023-04-14T18:03:07.567Z,72.10
2023-04-14T18:05:34.956Z,72.10
2023-04-14T18:08:03.838Z,72.20
2023-04-14T18:10:32.267Z,72.20
2023-04-14T18:13:02.546Z,72.10
2023-04-14T18:15:30.096Z,72.10
2023-04-14T18:17:57.453Z,72.20
2023-04-14T18:20:27.366Z,72.20
2023-04-14T18:22:54.893Z,72.20
2023-04-14T18:25:21.864Z,72.20
2023-04-14T18:30:19.443Z,72.20
2023-04-14T18:32:47.209Z,72.10
2023-04-14T18:35:15.828Z,72.10
2023-04-14T18:37:43.390Z,72.10
2023-04-14T18:40:11.780Z,72.20
2023-04-14T18:42:39.176Z,72.10
2023-04-14T18:45:06.875Z,72.30
2023-04-14T18:47:34.288Z,72.40
2023-04-14T18:50:01.468Z,72.30
2023-04-14T18:52:28.640Z,72.10
2023-04-14T18:54:56.199Z,72.20
2023-04-14T18:57:24.747Z,72.10
2023-04-14T18:59:51.791Z,72.30
2023-04-14T19:02:18.903Z,72.10
2023-04-14T19:04:47.983Z,72.20
2023-04-14T19:07:14.988Z,72.30
2023-04-14T19:09:42.066Z,72.40
2023-04-14T19:12:18.529Z,72.30
2023-04-14T19:14:54.421Z,72.50
2023-04-14T19:17:21.364Z,72.30
2023-04-14T19:19:48.432Z,72.10
2023-04-14T19:22:18.063Z,72.10
2023-04-14T19:24:47.593Z,72.10
2023-04-14T19:27:14.867Z,72.30
2023-04-14T19:29:41.897Z,72.30
2023-04-14T19:32:09.978Z,72.10
2023-04-14T19:34:37.223Z,72.30
2023-04-14T19:37:07.268Z,72.20
2023-04-14T19:39:35.225Z,72.20
2023-04-14T19:42:03.349Z,72.20
2023-04-14T19:44:30.360Z,72.30
2023-04-14T19:46:57.414Z,72.30
2023-04-14T19:49:24.794Z,72.20
2023-04-14T19:51:52.760Z,72.40
2023-04-14T19:54:20.463Z,72.50
2023-04-14T19:56:47.427Z,72.40
2023-04-14T19:59:14.420Z,72.50
2023-04-14T20:01:42.417Z,72.30
2023-04-14T20:04:12.343Z,72.40
2023-04-14T20:06:45.203Z,72.40
2023-04-14T20:09:12.251Z,72.60
2023-04-14T20:11:49.916Z,72.20
2023-04-14T20:14:16.886Z,72.40
2023-04-14T20:16:44.303Z,72.40
2023-04-14T20:19:13.897Z,72.40
2023-04-14T20:21:40.925Z,72.30
2023-04-14T20:24:07.998Z,72.40
2023-04-14T20:26:35.173Z,72.10
2023-04-14T20:29:02.816Z,72.30
2023-04-14T20:31:30.891Z,72.40
2023-04-14T20:34:00.563Z,72.40
2023-04-14T20:36:31.418Z,72.40
2023-04-14T20:39:00.107Z,72.50
2023-04-14T20:41:27.600Z,72.40
2023-04-14T20:43:54.538Z,72.40
2023-04-14T20:46:22.284Z,72.40
2023-04-14T20:48:49.591Z,72.50
2023-04-14T20:51:16.814Z,72.40
2023-04-14T20:53:43.827Z,72.40
2023-04-14T20:56:11.242Z,72.40
2023-04-14T20:58:39.750Z,72.40
2023-04-14T21:01:06.862Z,72.40
2023-04-14T21:03:34.872Z,72.40
2023-04-14T21:06:02.270Z,72.50
2023-04-14T21:08:29.940Z,72.50
2023-04-14T21:11:15.925Z,72.50
2023-04-14T21:15:27.010Z,72.60
2023-04-14T21:16:33.865Z,72.60
2023-04-14T21:19:02.449Z,72.80
2023-04-14T21:21:31.893Z,72.60
2023-04-14T21:23:59.174Z,72.60
2023-04-14T21:26:28.632Z,72.60
2023-04-14T21:28:56.557Z,72.60
2023-04-14T21:31:23.586Z,72.80
2023-04-14T21:33:50.519Z,72.70
2023-04-14T21:36:18.846Z,72.80
2023-04-14T21:38:45.830Z,72.80
2023-04-14T21:41:13.227Z,72.70
2023-04-14T21:43:40.444Z,72.70
2023-04-14T21:46:08.077Z,72.90
2023-04-14T21:48:35.227Z,73.00
2023-04-14T21:51:02.742Z,72.90
2023-04-14T21:53:30.031Z,72.90
2023-04-14T21:56:09.131Z,72.90
2023-04-14T21:58:38.080Z,73.00
2023-04-14T22:01:05.541Z,73.10
2023-04-14T22:03:33.400Z,73.10
2023-04-14T22:06:01.462Z,73.10
2023-04-14T22:08:28.415Z,73.20
2023-04-14T22:10:55.825Z,73.30
2023-04-14T22:13:23.701Z,73.20
2023-04-14T22:15:53.193Z,73.10
2023-04-14T22:18:22.032Z,73.30
2023-04-14T22:20:49.393Z,73.30
2023-04-14T22:23:17.185Z,73.40
2023-04-14T22:25:44.195Z,73.30
2023-04-14T22:28:11.186Z,73.50
2023-04-14T22:30:38.901Z,73.50
2023-04-14T22:33:07.022Z,73.40
2023-04-14T22:35:34.097Z,73.50
2023-04-14T22:38:01.388Z,73.60
2023-04-14T22:40:28.371Z,73.50
2023-04-14T22:42:55.452Z,73.40
2023-04-14T22:45:22.981Z,73.30
2023-04-14T22:47:49.911Z,73.40
2023-04-14T22:50:17.002Z,73.30
2023-04-14T22:52:43.958Z,73.30
2023-04-14T22:55:11.844Z,73.20
2023-04-14T22:57:38.931Z,73.50
2023-04-14T23:00:12.530Z,73.40
2023-04-14T23:02:42.272Z,73.30
2023-04-14T23:05:12.660Z,73.30
2023-04-14T23:07:40.133Z,73.40
2023-04-14T23:10:07.931Z,73.50
2023-04-14T23:12:35.908Z,73.50
2023-04-14T23:15:04.571Z,73.40
2023-04-14T23:17:32.790Z,73.40
2023-04-14T23:20:03.200Z,73.40
2023-04-14T23:22:31.088Z,73.40
2023-04-14T23:24:58.000Z,73.50
2023-04-14T23:27:24.880Z,73.40
2023-04-14T23:29:51.995Z,73.40
2023-04-14T23:32:18.945Z,73.30
2023-04-14T23:34:46.022Z,73.50
2023-04-14T23:37:13.165Z,73.50
2023-04-14T23:39:40.777Z,73.30
2023-04-14T23:42:08.634Z,73.50
2023-04-14T23:44:35.684Z,73.50
2023-04-14T23:47:02.876Z,73.50
2023-04-14T23:49:35.143Z,73.60
2023-04-14T23:52:04.582Z,73.60
2023-04-14T23:54:32.773Z,73.60
2023-04-14T23:56:59.826Z,73.60
2023-04-14T23:59:27.175Z,73.60
